createdAt,value
2018-08-27T05:11:10.284Z,13.10
2018-08-27T05:13:44.194Z,13.10
2018-08-27T05:16:37.779Z,13.10
2018-08-27T05:29:22.712Z,13.10
2018-08-27T05:32:01.858Z,13.10
2018-08-27T05:43:18.269Z,13.20
2018-08-27T06:23:20.848Z,13.50
2018-08-27T06:38:57.056Z,13.50
2018-08-27T06:54:37.227Z,13.50
2018-08-27T06:57:05.723Z,13.60
2018-08-27T06:59:34.431Z,13.60
2018-08-27T07:02:20.483Z,13.60
2018-08-27T07:05:03.425Z,13.60
2018-08-27T07:07:32.076Z,13.60
2018-08-27T07:10:00.592Z,13.60
2018-08-27T07:12:35.830Z,13.70
2018-08-27T07:39:59.387Z,13.70
2018-08-27T07:42:27.985Z,13.90
2018-08-27T07:44:56.364Z,13.90
2018-08-27T07:47:42.324Z,13.90
2018-08-27T07:50:11.037Z,13.90
2018-08-27T07:52:39.580Z,13.90
2018-08-27T07:55:08.428Z,14.00
2018-08-27T07:57:37.024Z,14.00
2018-08-27T08:00:06.186Z,14.00
2018-08-27T08:02:34.514Z,14.10
2018-08-27T08:05:03.042Z,14.10
2018-08-27T08:07:31.392Z,14.10
2018-08-27T08:10:00.528Z,14.20
2018-08-27T08:30:50.703Z,14.50
2018-08-27T08:33:19.537Z,14.60
2018-08-27T08:35:57.016Z,14.60
2018-08-27T08:38:28.447Z,14.60
2018-08-27T08:41:15.889Z,14.70
2018-08-27T08:43:49.742Z,14.70
2018-08-27T08:46:29.077Z,14.80
2018-08-27T08:48:59.616Z,14.80
2018-08-27T08:51:31.132Z,14.90
2018-08-27T09:11:48.127Z,15.20
2018-08-27T09:14:22.026Z,15.30
2018-08-27T09:37:48.513Z,16.10
2018-08-27T09:41:02.412Z,16.20
2018-08-27T09:52:41.258Z,16.40
2018-08-27T10:22:40.708Z,16.60
2018-08-27T10:25:10.363Z,17.90
2018-08-27T10:27:51.232Z,17.90
2018-08-27T10:36:21.368Z,18.00
2018-08-27T10:38:52.150Z,18.00
2018-08-27T14:42:07.675Z,18.30
2018-08-27T14:44:37.248Z,22.80
2018-08-27T14:47:06.092Z,22.70
2018-08-27T14:52:36.663Z,22.50
2018-08-27T14:55:05.591Z,22.40
2018-08-27T14:57:34.262Z,22.40
2018-08-27T15:00:03.091Z,22.50
2018-08-27T15:11:37.987Z,22.60
2018-08-27T15:14:09.458Z,22.50
2018-08-27T15:25:15.587Z,22.70
2018-08-27T15:27:45.853Z,22.70
2018-08-27T15:39:07.853Z,22.50
2018-08-27T15:41:44.718Z,22.50
2018-08-27T15:44:17.100Z,22.40
2018-08-27T16:34:02.818Z,21.40
2018-08-27T16:36:39.386Z,21.40
2018-08-27T16:39:18.290Z,21.30
2018-08-27T16:41:48.152Z,21.40
2018-08-27T16:44:35.448Z,21.40
2018-08-27T16:47:10.519Z,21.40
2018-08-27T17:13:03.143Z,20.60
2018-08-27T17:15:36.489Z,20.60
2018-08-27T17:18:05.822Z,20.50
2018-08-27T17:23:43.140Z,20.40
2018-08-27T17:35:00.224Z,20.20
2018-08-27T17:37:49.709Z,20.20
2018-08-27T17:40:21.630Z,20.10
2018-08-27T17:45:47.959Z,20.00
